createdAt,value
2018-09-22T00:01:00.209Z,68.30
2018-09-22T00:03:27.744Z,68.50
2018-09-22T00:05:55.336Z,69.10
2018-09-22T00:08:22.945Z,69.10
2018-09-22T00:10:50.571Z,69.40
2018-09-22T00:13:18.090Z,69.20
2018-09-22T00:15:45.671Z,69.20
2018-09-22T00:18:13.234Z,69.60
2018-09-22T00:20:40.827Z,69.80
2018-09-22T00:23:08.629Z,69.60
2018-09-22T00:25:36.232Z,69.10
2018-09-22T00:28:03.806Z,69.10
2018-09-22T00:30:31.413Z,69.40
2018-09-22T00:32:59.051Z,69.40
2018-09-22T00:35:26.721Z,69.40
2018-09-22T00:37:54.291Z,69.20
2018-09-22T00:40:21.889Z,69.40
2018-09-22T00:42:49.456Z,69.40
2018-09-22T00:45:17.022Z,69.40
2018-09-22T00:47:44.576Z,69.60
2018-09-22T00:50:12.245Z,69.60
2018-09-22T00:52:39.820Z,69.20
2018-09-22T00:55:07.469Z,69.60
2018-09-22T00:57:35.073Z,69.40
2018-09-22T01:00:02.687Z,68.90
2018-09-22T01:02:30.270Z,68.50
2018-09-22T01:04:57.919Z,68.70
2018-09-22T01:07:25.504Z,68.50
2018-09-22T01:09:53.031Z,68.50
2018-09-22T01:12:20.576Z,68.30
2018-09-22T01:14:48.133Z,68.10
2018-09-22T01:17:15.821Z,68.30
2018-09-22T01:19:43.377Z,68.30
2018-09-22T01:22:10.946Z,67.90
2018-09-22T01:24:38.504Z,67.60
2018-09-22T01:27:06.127Z,67.40
2018-09-22T01:29:33.678Z,67.00
2018-09-22T01:32:02.034Z,66.80
2018-09-22T01:34:29.569Z,66.40
2018-09-22T01:36:57.128Z,66.10
2018-09-22T01:39:24.704Z,65.90
2018-09-22T01:41:52.313Z,65.70
2018-09-22T01:44:19.861Z,65.30
2018-09-22T01:46:47.408Z,65.10
2018-09-22T01:49:15.608Z,65.00
2018-09-22T01:51:43.219Z,65.00
2018-09-22T01:54:10.801Z,64.60
2018-09-22T01:56:38.348Z,63.50
2018-09-22T01:59:05.921Z,63.10
2018-09-22T02:01:33.480Z,62.70
2018-09-22T02:04:01.045Z,62.50
2018-09-22T02:06:28.616Z,62.70
2018-09-22T02:08:56.165Z,62.70
2018-09-22T02:11:23.717Z,62.50
2018-09-22T02:13:51.261Z,61.80
2018-09-22T02:16:18.866Z,62.00
2018-09-22T02:18:46.400Z,62.00
2018-09-22T02:21:13.968Z,61.80
2018-09-22T02:23:41.499Z,62.00
2018-09-22T02:26:09.129Z,61.80
2018-09-22T02:28:36.659Z,61.60
2018-09-22T02:31:04.241Z,61.60
2018-09-22T02:33:32.966Z,61.80
2018-09-22T02:36:00.553Z,61.60
2018-09-22T02:38:28.100Z,62.00
2018-09-22T02:40:55.595Z,62.00
2018-09-22T02:43:23.200Z,62.70
2018-09-22T02:45:50.974Z,62.50
2018-09-22T02:48:18.530Z,63.10
2018-09-22T02:50:46.104Z,63.10
2018-09-22T02:53:13.649Z,63.80
2018-09-22T02:55:41.284Z,64.00
2018-09-22T02:58:09.276Z,64.60
2018-09-22T03:00:37.247Z,65.00
2018-09-22T03:03:05.095Z,65.50
2018-09-22T03:05:32.708Z,65.50
2018-09-22T03:08:00.258Z,65.90
2018-09-22T03:10:27.766Z,66.10
2018-09-22T03:12:55.360Z,66.10
2018-09-22T03:15:23.024Z,66.40
2018-09-22T03:17:50.530Z,66.60
2018-09-22T03:20:18.125Z,66.40
2018-09-22T03:22:45.649Z,66.60
2018-09-22T03:25:13.272Z,66.80
2018-09-22T03:27:40.826Z,66.60
2018-09-22T03:30:08.545Z,66.40
2018-09-22T03:32:36.076Z,66.40
2018-09-22T03:35:03.647Z,66.40
2018-09-22T03:37:31.260Z,66.40
2018-09-22T03:39:58.842Z,66.30
2018-09-22T03:42:26.384Z,66.60
2018-09-22T03:44:53.927Z,66.80
2018-09-22T03:47:21.451Z,67.00
2018-09-22T03:49:48.971Z,67.40
2018-09-22T03:52:16.560Z,67.90
2018-09-22T03:54:44.063Z,68.10
2018-09-22T03:57:11.745Z,68.50
2018-09-22T03:59:39.314Z,68.90
2018-09-22T04:02:06.865Z,69.10
2018-09-22T04:04:34.411Z,69.40
2018-09-22T04:07:01.916Z,69.40
2018-09-22T04:09:29.507Z,69.40
2018-09-22T04:11:57.027Z,69.40
2018-09-22T04:14:24.575Z,69.60
2018-09-22T04:16:52.124Z,69.60
2018-09-22T04:19:19.683Z,69.40
2018-09-22T04:21:47.314Z,69.40
2018-09-22T04:24:19.525Z,69.60
2018-09-22T04:26:48.793Z,69.40
2018-09-22T04:29:16.564Z,69.40
2018-09-22T04:31:44.109Z,69.40
2018-09-22T04:34:12.095Z,69.20
2018-09-22T04:36:39.664Z,69.80
2018-09-22T04:39:08.788Z,70.00
2018-09-22T04:41:37.494Z,70.20
2018-09-22T04:44:05.439Z,70.40
2018-09-22T04:46:33.073Z,70.70
2018-09-22T04:49:00.847Z,71.10
2018-09-22T04:51:28.798Z,71.30
2018-09-22T04:53:56.360Z,71.70
2018-09-22T04:56:23.944Z,72.00
2018-09-22T04:58:51.487Z,72.60
2018-09-22T05:01:19.030Z,73.20
2018-09-22T05:03:46.556Z,73.30
2018-09-22T05:06:14.140Z,73.30
2018-09-22T05:08:41.729Z,73.30
2018-09-22T05:11:09.368Z,73.20
2018-09-22T05:13:36.889Z,73.20
2018-09-22T05:16:04.513Z,73.30
2018-09-22T05:18:32.065Z,73.50
2018-09-22T05:20:59.690Z,73.90
2018-09-22T05:23:27.721Z,73.70
2018-09-22T05:25:55.282Z,73.50
2018-09-22T05:28:22.920Z,73.50
2018-09-22T05:30:50.691Z,73.70
2018-09-22T05:33:18.316Z,74.10
2018-09-22T05:35:45.928Z,74.30
2018-09-22T05:38:13.529Z,74.60
2018-09-22T05:40:41.083Z,74.60
2018-09-22T05:43:08.925Z,74.80
2018-09-22T05:45:36.474Z,75.00
2018-09-22T05:48:04.037Z,74.80
2018-09-22T05:50:31.643Z,74.60
2018-09-22T05:52:59.246Z,74.50
2018-09-22T05:55:26.826Z,74.30
2018-09-22T05:57:54.385Z,74.30
2018-09-22T06:00:22.012Z,74.50
2018-09-22T06:02:49.989Z,73.70
2018-09-22T06:05:17.568Z,73.70
2018-09-22T06:07:45.115Z,73.20
2018-09-22T06:10:12.690Z,73.00
2018-09-22T06:12:40.211Z,73.20
2018-09-22T06:15:08.011Z,72.20
2018-09-22T06:17:35.574Z,72.40
2018-09-22T06:20:03.239Z,72.00
2018-09-22T06:22:30.797Z,71.30
2018-09-22T06:24:58.513Z,71.50
2018-09-22T06:27:26.076Z,71.10
2018-09-22T06:29:53.628Z,70.70
2018-09-22T06:32:21.238Z,70.00
2018-09-22T06:34:48.824Z,70.90
2018-09-22T06:37:17.359Z,70.20
2018-09-22T06:39:46.259Z,69.60
2018-09-22T06:42:14.127Z,69.40
2018-09-22T06:44:42.588Z,68.70
2018-09-22T06:47:10.616Z,68.10
2018-09-22T06:49:38.255Z,64.20
2018-09-22T06:52:05.978Z,63.70
2018-09-22T06:54:33.540Z,63.80
2018-09-22T06:57:01.442Z,62.50
2018-09-22T06:59:29.058Z,61.60
2018-09-22T07:01:56.646Z,60.90
2018-09-22T07:04:24.262Z,59.20
2018-09-22T07:06:51.957Z,57.40
2018-09-22T07:09:19.599Z,56.30
2018-09-22T07:11:47.173Z,53.10
2018-09-22T07:14:14.785Z,51.40
2018-09-22T07:16:42.499Z,49.00
2018-09-22T07:19:10.203Z,46.10
2018-09-22T07:21:43.511Z,44.40
2018-09-22T07:24:11.108Z,43.60
2018-09-22T07:26:38.695Z,42.70
2018-09-22T07:29:06.332Z,42.70
2018-09-22T07:31:33.895Z,42.00
2018-09-22T07:34:01.501Z,42.10
2018-09-22T07:36:29.113Z,43.20
2018-09-22T07:38:56.651Z,43.50
2018-09-22T07:41:24.394Z,44.70
2018-09-22T07:43:52.126Z,43.60
2018-09-22T07:46:19.889Z,43.50
2018-09-22T07:48:47.493Z,41.80
2018-09-22T07:51:15.141Z,41.20
2018-09-22T07:53:42.847Z,41.70
2018-09-22T07:56:10.587Z,37.90
2018-09-22T07:58:38.268Z,39.20
2018-09-22T08:01:05.758Z,37.40
2018-09-22T08:03:33.372Z,37.70
2018-09-22T08:06:00.974Z,38.80
2018-09-22T08:08:28.690Z,39.10
2018-09-22T08:10:56.302Z,37.30
2018-09-22T08:13:24.221Z,36.60
2018-09-22T08:15:51.829Z,35.60
2018-09-22T08:18:19.488Z,33.10
2018-09-22T08:20:47.165Z,32.10
2018-09-22T08:23:14.764Z,31.80
2018-09-22T08:25:42.304Z,30.90
2018-09-22T08:28:09.954Z,30.40
2018-09-22T08:30:37.543Z,29.40
2018-09-22T08:33:05.236Z,29.10
2018-09-22T08:35:32.857Z,27.20
2018-09-22T08:38:00.479Z,26.40
2018-09-22T08:40:28.097Z,25.50
2018-09-22T08:42:55.682Z,25.00
2018-09-22T08:45:23.304Z,23.30
2018-09-22T08:47:50.965Z,22.60
2018-09-22T08:50:18.559Z,22.60
2018-09-22T08:52:46.203Z,22.90
2018-09-22T08:55:13.808Z,21.90
2018-09-22T08:57:41.489Z,22.50
2018-09-22T09:00:09.155Z,21.00
2018-09-22T09:02:36.781Z,20.50
2018-09-22T09:05:04.521Z,20.50
2018-09-22T09:07:32.035Z,21.00
2018-09-22T09:09:59.629Z,21.10
2018-09-22T09:12:27.336Z,20.50
2018-09-22T09:14:55.036Z,21.30
2018-09-22T09:17:22.641Z,21.00
2018-09-22T09:19:50.304Z,21.20
2018-09-22T09:22:18.033Z,20.00
2018-09-22T09:24:45.671Z,20.70
2018-09-22T09:27:13.379Z,21.00
2018-09-22T09:29:40.950Z,21.20
2018-09-22T09:32:10.144Z,20.00
2018-09-22T09:34:37.780Z,20.30
2018-09-22T09:37:05.480Z,20.10
2018-09-22T09:39:33.085Z,19.40
2018-09-22T09:42:00.801Z,19.80
2018-09-22T09:44:28.376Z,19.10
2018-09-22T09:46:55.949Z,19.00
2018-09-22T09:49:23.569Z,19.00
2018-09-22T09:51:51.152Z,19.10
2018-09-22T09:54:18.796Z,18.10
2018-09-22T09:56:46.437Z,17.10
2018-09-22T09:59:14.104Z,16.30
2018-09-22T10:01:41.892Z,16.40
2018-09-22T10:04:09.577Z,17.80
2018-09-22T10:06:37.139Z,17.10
2018-09-22T10:09:06.527Z,18.00
2018-09-22T10:11:34.135Z,17.60
2018-09-22T10:14:01.706Z,17.80
2018-09-22T10:16:29.305Z,17.80
2018-09-22T10:18:56.911Z,19.00
2018-09-22T10:21:24.523Z,20.50
2018-09-22T10:23:52.144Z,20.60
2018-09-22T10:26:19.802Z,20.10
2018-09-22T10:28:47.442Z,19.40
2018-09-22T10:31:14.964Z,19.20
2018-09-22T10:33:42.521Z,19.20
2018-09-22T10:36:10.170Z,17.30
2018-09-22T10:38:37.736Z,16.00
2018-09-22T10:41:05.499Z,15.80
2018-09-22T10:43:33.426Z,15.00
2018-09-22T10:46:01.004Z,14.10
2018-09-22T10:48:28.592Z,15.20
2018-09-22T10:50:56.149Z,13.50
2018-09-22T10:53:23.782Z,13.10
2018-09-22T10:55:51.384Z,13.30
2018-09-22T10:58:19.062Z,12.20
2018-09-22T11:00:46.774Z,12.20
2018-09-22T11:03:14.334Z,12.30
2018-09-22T11:05:41.903Z,11.60
2018-09-22T11:08:09.579Z,11.90
2018-09-22T11:10:37.155Z,10.60
2018-09-22T11:13:04.753Z,9.60
2018-09-22T11:15:32.357Z,10.50
2018-09-22T11:17:59.891Z,11.70
2018-09-22T11:20:27.514Z,12.50
2018-09-22T11:22:55.093Z,13.10
2018-09-22T11:25:22.656Z,14.90
2018-09-22T11:27:50.518Z,14.10
2018-09-22T11:30:18.180Z,12.30
2018-09-22T11:32:45.729Z,12.30
2018-09-22T11:35:15.332Z,10.10
2018-09-22T11:37:43.004Z,8.50
2018-09-22T11:40:10.545Z,8.50
2018-09-22T11:42:38.173Z,8.00
2018-09-22T11:45:05.841Z,8.00
2018-09-22T11:47:33.394Z,7.80
2018-09-22T11:50:00.893Z,7.00
2018-09-22T11:52:28.430Z,7.30
2018-09-22T11:54:55.948Z,6.20
2018-09-22T11:57:23.678Z,7.10
2018-09-22T11:59:51.270Z,8.40
2018-09-22T12:02:18.831Z,7.90
2018-09-22T12:04:46.423Z,7.20
2018-09-22T12:07:13.980Z,8.30
2018-09-22T12:09:41.782Z,7.50
2018-09-22T12:12:09.440Z,6.90
2018-09-22T12:14:36.970Z,6.60
2018-09-22T12:17:05.358Z,6.80
2018-09-22T12:19:32.952Z,8.60
2018-09-22T12:22:01.084Z,9.30
2018-09-22T12:24:28.682Z,11.10
2018-09-22T12:26:56.316Z,11.40
2018-09-22T12:29:23.820Z,10.70
2018-09-22T12:31:51.519Z,11.10
2018-09-22T12:34:19.104Z,11.00
2018-09-22T12:36:46.687Z,12.00
2018-09-22T12:39:14.299Z,11.60
2018-09-22T12:41:41.931Z,12.40
2018-09-22T12:44:09.642Z,10.90
2018-09-22T12:46:37.224Z,9.40
2018-09-22T12:49:04.950Z,8.50
2018-09-22T12:51:32.781Z,8.30
2018-09-22T12:54:00.340Z,7.70
2018-09-22T12:56:27.961Z,7.40
2018-09-22T12:58:55.563Z,7.60
2018-09-22T13:01:23.173Z,8.10
2018-09-22T13:03:51.054Z,7.90
2018-09-22T13:06:18.504Z,9.10
2018-09-22T13:08:46.103Z,9.50
2018-09-22T13:11:13.778Z,9.90
2018-09-22T13:13:41.384Z,9.40
2018-09-22T13:16:09.084Z,9.30
2018-09-22T13:18:36.714Z,8.70
2018-09-22T13:21:04.438Z,8.50
2018-09-22T13:23:31.979Z,7.40
2018-09-22T13:25:59.599Z,7.40
2018-09-22T13:28:27.224Z,7.60
2018-09-22T13:30:54.897Z,7.10
2018-09-22T13:33:22.458Z,7.40
2018-09-22T13:35:50.034Z,8.70
2018-09-22T13:38:17.632Z,10.20
2018-09-22T13:40:45.279Z,11.70
2018-09-22T13:43:12.870Z,12.70
2018-09-22T13:45:40.447Z,12.90
2018-09-22T13:48:08.091Z,12.70
2018-09-22T13:50:35.758Z,11.40
2018-09-22T13:53:03.374Z,10.80
2018-09-22T13:55:31.005Z,10.70
2018-09-22T13:57:58.643Z,10.10
2018-09-22T14:00:26.237Z,10.00
2018-09-22T14:02:53.791Z,10.30
2018-09-22T14:05:21.343Z,10.30
2018-09-22T14:07:48.909Z,10.70
2018-09-22T14:10:16.513Z,11.90
2018-09-22T14:12:44.035Z,12.30
2018-09-22T14:15:11.639Z,12.60
2018-09-22T14:17:39.210Z,12.50
2018-09-22T14:20:06.871Z,13.60
2018-09-22T14:22:34.441Z,13.70
2018-09-22T14:25:01.996Z,13.10
2018-09-22T14:27:29.619Z,13.00
2018-09-22T14:29:57.255Z,12.90
2018-09-22T14:32:24.869Z,13.20
2018-09-22T14:34:52.488Z,14.30
2018-09-22T14:37:20.113Z,15.20
2018-09-22T14:39:47.676Z,16.20
2018-09-22T14:42:15.382Z,17.00
2018-09-22T14:44:42.959Z,16.40
2018-09-22T14:47:10.615Z,15.80
2018-09-22T14:49:38.206Z,14.70
2018-09-22T14:52:05.960Z,15.00
2018-09-22T14:54:33.545Z,13.90
2018-09-22T14:57:01.063Z,13.70
2018-09-22T14:59:28.656Z,14.20
2018-09-22T15:01:56.256Z,15.10
2018-09-22T15:04:23.846Z,16.30
2018-09-22T15:06:51.455Z,17.40
2018-09-22T15:09:19.115Z,17.90
2018-09-22T15:11:46.693Z,19.00
2018-09-22T15:14:14.305Z,19.10
2018-09-22T15:16:41.926Z,20.10
2018-09-22T15:19:09.535Z,20.20
2018-09-22T15:21:37.236Z,21.40
2018-09-22T15:24:04.866Z,21.40
2018-09-22T15:26:32.523Z,21.80
2018-09-22T15:29:00.139Z,22.40
2018-09-22T15:31:27.797Z,22.40
2018-09-22T15:33:55.334Z,23.00
2018-09-22T15:36:22.968Z,22.50
2018-09-22T15:38:50.586Z,23.50
2018-09-22T15:41:18.168Z,23.90
2018-09-22T15:43:45.805Z,23.90
2018-09-22T15:46:13.396Z,24.50
2018-09-22T15:48:41.017Z,24.50
2018-09-22T15:51:08.889Z,24.80
2018-09-22T15:53:36.441Z,24.90
2018-09-22T15:56:04.038Z,25.40
2018-09-22T15:58:31.689Z,25.70
2018-09-22T16:00:59.425Z,26.10
2018-09-22T16:03:26.930Z,26.70
2018-09-22T16:05:54.549Z,26.70
2018-09-22T16:08:22.138Z,27.00
2018-09-22T16:10:49.749Z,27.10
2018-09-22T16:13:17.353Z,27.30
2018-09-22T16:15:44.947Z,27.40
2018-09-22T16:18:12.572Z,27.20
2018-09-22T16:20:40.212Z,27.30
2018-09-22T16:23:08.113Z,27.70
2018-09-22T16:25:35.776Z,27.90
2018-09-22T16:28:03.397Z,28.00
2018-09-22T16:30:30.973Z,28.20
2018-09-22T16:32:58.588Z,28.50
2018-09-22T16:35:26.170Z,28.70
2018-09-22T16:37:53.790Z,29.00
2018-09-22T16:40:21.363Z,28.80
2018-09-22T16:42:48.991Z,29.00
2018-09-22T16:45:16.625Z,29.30
2018-09-22T16:47:44.151Z,29.60
2018-09-22T16:50:18.533Z,29.90
2018-09-22T16:52:46.083Z,29.90
2018-09-22T16:55:13.872Z,29.90
2018-09-22T16:57:41.423Z,30.90
2018-09-22T17:00:09.169Z,30.60
2018-09-22T17:02:36.805Z,31.20
2018-09-22T17:05:04.445Z,31.20
2018-09-22T17:07:32.015Z,32.70
2018-09-22T17:09:59.633Z,32.70
2018-09-22T17:12:27.255Z,32.50
2018-09-22T17:14:54.939Z,33.10
2018-09-22T17:17:22.569Z,32.80
2018-09-22T17:19:50.196Z,33.30
2018-09-22T17:22:17.788Z,33.70
2018-09-22T17:24:45.392Z,33.90
2018-09-22T17:27:13.013Z,33.70
2018-09-22T17:29:40.607Z,34.20
2018-09-22T17:32:08.207Z,34.20
2018-09-22T17:34:35.832Z,34.20
2018-09-22T17:37:03.413Z,34.50
2018-09-22T17:39:30.997Z,34.50
2018-09-22T17:41:58.573Z,34.80
2018-09-22T17:44:26.229Z,35.00
2018-09-22T17:46:53.844Z,35.00
2018-09-22T17:49:21.408Z,35.40
2018-09-22T17:51:49.150Z,35.70
2018-09-22T17:54:16.703Z,36.50
2018-09-22T17:56:44.256Z,36.20
2018-09-22T17:59:11.881Z,36.00
2018-09-22T18:01:39.492Z,36.00
2018-09-22T18:04:07.059Z,36.20
2018-09-22T18:06:34.653Z,36.30
2018-09-22T18:09:02.307Z,36.60
2018-09-22T18:11:30.037Z,36.80
2018-09-22T18:13:57.615Z,37.10
2018-09-22T18:16:25.264Z,37.40
2018-09-22T18:18:52.932Z,37.70
2018-09-22T18:21:20.590Z,38.60
2018-09-22T18:23:48.153Z,39.20
2018-09-22T18:26:15.786Z,39.20
2018-09-22T18:28:43.341Z,40.10
2018-09-22T18:31:10.939Z,42.30
2018-09-22T18:33:38.615Z,47.20
2018-09-22T18:36:06.270Z,48.50
2018-09-22T18:38:33.823Z,50.30
2018-09-22T18:41:01.384Z,51.40
2018-09-22T18:43:29.029Z,51.70
2018-09-22T18:45:56.665Z,53.90
2018-09-22T18:48:24.218Z,53.90
2018-09-22T18:50:51.800Z,51.10
2018-09-22T18:53:19.415Z,51.30
2018-09-22T18:55:47.019Z,50.30
2018-09-22T18:58:14.696Z,51.70
2018-09-22T19:00:42.284Z,53.90
2018-09-22T19:03:09.968Z,56.40
2018-09-22T19:05:37.565Z,57.80
2018-09-22T19:08:06.504Z,59.30
2018-09-22T19:10:34.172Z,58.70
2018-09-22T19:13:02.870Z,59.00
2018-09-22T19:15:37.608Z,59.30
2018-09-22T19:18:17.435Z,60.50
2018-09-22T19:22:55.513Z,62.00
2018-09-22T19:25:25.233Z,61.40
2018-09-22T19:27:56.721Z,61.80
2018-09-22T19:30:30.184Z,62.50
2018-09-22T19:33:18.880Z,62.20
2018-09-22T19:36:06.432Z,60.50
2018-09-22T19:39:04.908Z,60.30
2018-09-22T19:41:39.105Z,61.80
2018-09-22T19:44:12.806Z,61.20
2018-09-22T19:46:44.915Z,61.80
2018-09-22T19:49:17.419Z,62.30
2018-09-22T19:51:50.723Z,63.10
2018-09-22T19:54:18.378Z,64.20
2018-09-22T19:56:46.120Z,63.50
2018-09-22T19:59:13.714Z,61.80
2018-09-22T20:01:41.473Z,59.90
2018-09-22T20:04:09.191Z,62.00
2018-09-22T20:06:36.808Z,63.80
2018-09-22T20:09:05.436Z,65.30
2018-09-22T20:11:33.066Z,65.30
2018-09-22T20:14:00.792Z,66.60
2018-09-22T20:16:28.546Z,66.80
2018-09-22T20:18:56.125Z,66.60
2018-09-22T20:21:23.945Z,66.10
2018-09-22T20:23:51.503Z,67.60
2018-09-22T20:26:19.088Z,69.20
2018-09-22T20:28:46.656Z,69.10
2018-09-22T20:31:14.357Z,68.30
2018-09-22T20:33:41.944Z,69.10
2018-09-22T20:36:09.585Z,69.40
2018-09-22T20:38:37.197Z,69.60
2018-09-22T20:41:04.818Z,69.80
2018-09-22T20:43:32.368Z,70.40
2018-09-22T20:45:59.965Z,70.50
2018-09-22T20:48:27.564Z,70.90
2018-09-22T20:50:55.252Z,70.40
2018-09-22T20:53:22.911Z,70.20
2018-09-22T20:55:50.477Z,70.90
2018-09-22T20:58:18.051Z,71.70
2018-09-22T21:00:45.631Z,71.80
2018-09-22T21:03:13.180Z,73.00
2018-09-22T21:05:40.755Z,71.50
2018-09-22T21:08:08.431Z,70.90
2018-09-22T21:10:35.980Z,70.70
2018-09-22T21:13:03.529Z,70.20
2018-09-22T21:15:31.101Z,70.70
2018-09-22T21:17:58.726Z,70.90
2018-09-22T21:20:26.349Z,72.00
2018-09-22T21:22:54.049Z,72.40
2018-09-22T21:25:21.683Z,73.20
2018-09-22T21:27:49.252Z,72.60
2018-09-22T21:30:16.898Z,72.60
2018-09-22T21:32:44.447Z,72.00
2018-09-22T21:35:12.077Z,70.40
2018-09-22T21:37:39.736Z,67.20
2018-09-22T21:40:07.323Z,65.90
2018-09-22T21:42:34.862Z,67.60
2018-09-22T21:45:02.478Z,69.20
2018-09-22T21:47:30.062Z,71.10
2018-09-22T21:49:57.645Z,71.50
2018-09-22T21:52:25.283Z,71.30
2018-09-22T21:54:52.973Z,71.80
2018-09-22T21:57:20.466Z,73.30
2018-09-22T21:59:48.041Z,68.90
2018-09-22T22:02:15.744Z,69.80
2018-09-22T22:04:43.304Z,71.70
2018-09-22T22:07:10.950Z,72.40
2018-09-22T22:09:38.544Z,73.70
2018-09-22T22:12:06.142Z,74.80
2018-09-22T22:14:33.686Z,75.20
2018-09-22T22:17:01.240Z,77.60
2018-09-22T22:19:28.839Z,78.60
2018-09-22T22:21:56.368Z,79.10
2018-09-22T22:24:23.926Z,78.40
2018-09-22T22:26:51.813Z,77.60
2018-09-22T22:29:19.397Z,77.10
2018-09-22T22:31:46.960Z,77.40
2018-09-22T22:34:14.895Z,78.90
2018-09-22T22:36:42.539Z,79.50
2018-09-22T22:39:10.235Z,80.20
2018-09-22T22:41:37.793Z,80.60
2018-09-22T22:44:05.450Z,80.40
2018-09-22T22:46:32.994Z,81.00
2018-09-22T22:49:00.668Z,80.60
2018-09-22T22:51:28.337Z,80.80
2018-09-22T22:53:55.914Z,79.50
2018-09-22T22:56:23.505Z,78.60
2018-09-22T22:58:51.094Z,76.50
2018-09-22T23:01:18.838Z,72.60
2018-09-22T23:03:46.429Z,70.50
2018-09-22T23:06:13.991Z,68.30
2018-09-22T23:08:41.530Z,70.20
2018-09-22T23:11:09.204Z,72.20
2018-09-22T23:13:36.822Z,69.20
2018-09-22T23:16:04.383Z,68.50
2018-09-22T23:18:31.942Z,69.10
2018-09-22T23:21:00.375Z,69.40
2018-09-22T23:23:28.063Z,69.80
2018-09-22T23:25:55.607Z,72.60
2018-09-22T23:28:23.229Z,72.40
2018-09-22T23:30:50.947Z,73.00
2018-09-22T23:33:18.549Z,72.80
2018-09-22T23:35:46.115Z,73.90
2018-09-22T23:38:13.672Z,73.20
2018-09-22T23:40:41.254Z,74.80
2018-09-22T23:43:08.812Z,73.30
2018-09-22T23:45:36.416Z,74.30
2018-09-22T23:48:04.009Z,75.20
2018-09-22T23:50:31.561Z,75.40
2018-09-22T23:52:59.164Z,76.30
2018-09-22T23:55:26.724Z,73.90
2018-09-22T23:57:54.285Z,73.70
